createdAt,value
2022-12-27T00:01:23.264Z,168.95
2022-12-27T00:03:26.601Z,158.60
2022-12-27T00:05:30.031Z,183.57
2022-12-27T00:07:33.416Z,182.88
2022-12-27T00:09:38.182Z,171.65
2022-12-27T00:11:41.589Z,176.63
2022-12-27T00:13:45.295Z,182.40
2022-12-27T00:15:48.723Z,173.40
2022-12-27T00:17:52.121Z,174.00
2022-12-27T00:19:55.402Z,193.15
2022-12-27T00:21:59.453Z,161.80
2022-12-27T00:24:02.957Z,179.57
2022-12-27T00:26:11.843Z,160.50
2022-12-27T00:28:16.001Z,163.57
2022-12-27T00:30:19.552Z,170.70
2022-12-27T00:32:22.891Z,164.25
2022-12-27T00:34:26.279Z,165.05
2022-12-27T00:36:31.547Z,175.02
2022-12-27T00:38:35.782Z,164.38
2022-12-27T00:40:40.366Z,179.52
2022-12-27T00:42:45.134Z,165.82
2022-12-27T00:44:48.524Z,159.55
2022-12-27T00:46:52.066Z,162.75
2022-12-27T00:48:57.522Z,172.82
2022-12-27T00:51:02.043Z,178.02
2022-12-27T00:53:05.447Z,158.55
2022-12-27T00:55:09.973Z,159.82
2022-12-27T00:57:13.302Z,176.70
2022-12-27T00:59:18.015Z,167.35
2022-12-27T01:01:23.373Z,183.38
2022-12-27T01:03:27.630Z,159.90
2022-12-27T01:05:31.059Z,173.32
2022-12-27T01:07:34.379Z,176.88
2022-12-27T01:09:37.669Z,176.35
2022-12-27T01:11:41.615Z,177.52
2022-12-27T01:13:45.981Z,165.63
2022-12-27T01:15:50.609Z,163.55
2022-12-27T01:17:53.951Z,178.73
2022-12-27T01:19:57.453Z,163.02
2022-12-27T01:22:01.669Z,172.95
2022-12-27T01:24:07.174Z,161.90
2022-12-27T01:26:15.033Z,168.40
2022-12-27T01:28:18.342Z,158.98
2022-12-27T01:30:21.737Z,171.32
2022-12-27T01:32:26.445Z,178.38
2022-12-27T01:34:29.848Z,156.65
2022-12-27T01:36:33.187Z,178.50
2022-12-27T01:38:36.459Z,160.18
2022-12-27T01:40:39.803Z,170.27
2022-12-27T01:42:55.734Z,165.05
2022-12-27T01:44:59.483Z,170.57
2022-12-27T01:47:03.586Z,161.35
2022-12-27T01:49:10.962Z,162.55
2022-12-27T01:51:15.082Z,164.15
2022-12-27T01:53:21.689Z,169.88
2022-12-27T01:55:31.038Z,175.02
2022-12-27T01:57:34.577Z,165.60
2022-12-27T01:59:38.993Z,173.55
2022-12-27T02:01:45.473Z,186.55
2022-12-27T02:03:53.361Z,170.77
2022-12-27T02:06:00.958Z,178.05
2022-12-27T02:08:18.277Z,170.80
2022-12-27T02:10:22.073Z,159.32
2022-12-27T02:12:26.773Z,170.50
2022-12-27T02:14:33.553Z,167.43
2022-12-27T02:16:37.321Z,191.32
2022-12-27T02:18:40.829Z,168.02
2022-12-27T02:21:07.909Z,167.10
2022-12-27T02:24:02.975Z,183.05
2022-12-27T02:26:33.516Z,163.18
2022-12-27T02:29:03.457Z,180.75
2022-12-27T02:31:11.655Z,177.65
2022-12-27T02:33:19.467Z,164.23
2022-12-27T02:35:27.988Z,172.38
2022-12-27T02:37:35.034Z,180.95
2022-12-27T02:39:42.255Z,163.38
2022-12-27T02:42:06.786Z,168.70
2022-12-27T02:44:29.221Z,176.48
2022-12-27T02:46:51.042Z,170.38
2022-12-27T02:49:14.056Z,171.77
2022-12-27T02:51:50.454Z,169.07
2022-12-27T02:54:07.300Z,166.88
2022-12-27T02:56:40.220Z,158.80
2022-12-27T02:58:58.955Z,176.50
2022-12-27T03:01:29.396Z,170.75
2022-12-27T03:03:46.804Z,163.73
2022-12-27T03:06:21.608Z,183.80
2022-12-27T03:08:36.252Z,174.50
2022-12-27T03:11:01.948Z,181.50
2022-12-27T03:13:37.060Z,171.93
2022-12-27T03:15:58.484Z,176.43
2022-12-27T03:18:09.468Z,181.40
2022-12-27T03:20:34.521Z,162.13
2022-12-27T03:22:57.995Z,182.55
2022-12-27T03:25:21.914Z,189.20
2022-12-27T03:27:29.935Z,174.13
2022-12-27T03:29:50.847Z,170.05
2022-12-27T03:32:15.022Z,172.65
2022-12-27T03:34:32.834Z,184.02
2022-12-27T03:37:03.935Z,173.07
2022-12-27T03:39:17.469Z,178.55
2022-12-27T03:41:44.002Z,170.68
2022-12-27T03:43:47.433Z,168.07
2022-12-27T03:46:14.613Z,177.93
2022-12-27T03:48:24.519Z,175.48
2022-12-27T03:50:32.533Z,177.63
2022-12-27T03:52:41.647Z,177.48
2022-12-27T03:54:47.811Z,182.52
2022-12-27T03:56:51.223Z,175.48
2022-12-27T03:58:56.198Z,175.80
2022-12-27T04:00:59.526Z,173.27
2022-12-27T04:03:02.879Z,176.18
2022-12-27T04:05:07.091Z,168.93
2022-12-27T04:07:13.744Z,169.90
2022-12-27T04:09:34.618Z,171.13
2022-12-27T04:11:55.761Z,183.20
2022-12-27T04:14:16.948Z,170.45
2022-12-27T04:16:38.232Z,180.45
2022-12-27T04:18:59.287Z,169.70
2022-12-27T04:21:20.269Z,182.75
2022-12-27T04:23:42.410Z,178.13
2022-12-27T04:26:03.475Z,162.93
2022-12-27T04:28:24.511Z,185.75
2022-12-27T04:30:45.577Z,177.35
2022-12-27T04:33:06.515Z,175.02
2022-12-27T04:35:09.924Z,178.48
2022-12-27T04:37:15.873Z,179.63
2022-12-27T04:39:20.648Z,170.65
2022-12-27T04:41:41.282Z,167.88
2022-12-27T04:44:02.082Z,175.25
2022-12-27T04:46:23.741Z,178.57
2022-12-27T04:48:47.955Z,195.68
2022-12-27T04:51:08.640Z,174.98
2022-12-27T04:53:31.585Z,170.15
2022-12-27T04:55:36.548Z,175.20
2022-12-27T04:57:39.985Z,182.00
2022-12-27T05:00:01.274Z,172.55
2022-12-27T05:02:03.940Z,188.20
2022-12-27T05:04:07.530Z,172.80
2022-12-27T05:06:11.319Z,170.65
2022-12-27T05:08:33.334Z,168.30
2022-12-27T05:10:55.643Z,186.98
2022-12-27T05:13:16.604Z,171.05
2022-12-27T05:15:20.015Z,166.38
2022-12-27T05:17:23.501Z,181.73
2022-12-27T05:19:26.800Z,190.23
2022-12-27T05:21:30.099Z,177.65
2022-12-27T05:23:52.371Z,174.40
2022-12-27T05:25:56.072Z,175.57
2022-12-27T05:27:59.410Z,189.57
2022-12-27T05:30:02.699Z,173.40
2022-12-27T05:32:12.637Z,181.57
2022-12-27T05:34:16.581Z,176.23
2022-12-27T05:36:20.772Z,179.10
2022-12-27T05:38:24.109Z,199.48
2022-12-27T05:40:27.876Z,180.98
2022-12-27T05:42:32.667Z,178.20
2022-12-27T05:44:35.913Z,192.68
2022-12-27T05:46:39.341Z,200.20
2022-12-27T05:48:43.644Z,185.77
2022-12-27T05:50:46.962Z,179.48
2022-12-27T05:52:50.435Z,186.75
2022-12-27T05:54:53.706Z,189.68
2022-12-27T05:56:58.156Z,188.27
2022-12-27T05:59:02.821Z,166.98
2022-12-27T06:01:09.547Z,175.15
2022-12-27T06:03:12.909Z,185.02
2022-12-27T06:05:16.382Z,177.15
2022-12-27T06:07:19.759Z,163.77
2022-12-27T06:09:23.120Z,190.07
2022-12-27T06:11:26.566Z,179.93
2022-12-27T06:13:29.993Z,166.27
2022-12-27T06:15:34.805Z,175.38
2022-12-27T06:17:38.207Z,183.65
2022-12-27T06:19:41.553Z,167.10
2022-12-27T06:21:44.972Z,171.60
2022-12-27T06:23:49.449Z,178.90
2022-12-27T06:25:52.746Z,177.25
2022-12-27T06:27:56.043Z,190.50
2022-12-27T06:29:59.523Z,174.43
2022-12-27T06:32:04.724Z,174.25
2022-12-27T06:34:08.189Z,164.38
2022-12-27T06:36:13.723Z,172.57
2022-12-27T06:38:17.098Z,188.95
2022-12-27T06:40:21.902Z,170.23
2022-12-27T06:42:25.347Z,175.27
2022-12-27T06:44:28.767Z,168.43
2022-12-27T06:46:32.115Z,181.18
2022-12-27T06:48:37.770Z,171.68
2022-12-27T06:50:41.151Z,163.10
2022-12-27T06:52:44.497Z,169.65
2022-12-27T06:54:48.127Z,164.80
2022-12-27T06:56:51.415Z,168.02
2022-12-27T06:58:54.944Z,170.30
2022-12-27T07:00:58.355Z,170.27
2022-12-27T07:03:01.761Z,162.50
2022-12-27T07:05:07.289Z,169.85
2022-12-27T07:07:15.434Z,185.02
2022-12-27T07:09:19.392Z,171.88
2022-12-27T07:11:23.582Z,163.18
2022-12-27T07:13:28.034Z,173.15
2022-12-27T07:15:31.469Z,178.80
2022-12-27T07:17:35.635Z,165.98
2022-12-27T07:19:38.944Z,164.48
2022-12-27T07:21:44.041Z,174.32
2022-12-27T07:23:47.545Z,176.52
2022-12-27T07:25:51.163Z,181.20
2022-12-27T07:27:54.418Z,180.27
2022-12-27T07:29:58.001Z,173.98
2022-12-27T07:32:01.375Z,179.45
2022-12-27T07:34:05.277Z,172.95
2022-12-27T07:36:13.480Z,168.95
2022-12-27T07:38:18.160Z,179.27
2022-12-27T07:40:21.464Z,165.07
2022-12-27T07:42:25.004Z,183.40
2022-12-27T07:44:28.553Z,184.25
2022-12-27T07:46:32.857Z,174.23
2022-12-27T07:48:36.864Z,175.50
2022-12-27T07:50:40.268Z,168.40
2022-12-27T07:52:43.549Z,189.95
2022-12-27T07:54:48.302Z,180.50
2022-12-27T07:56:51.882Z,180.27
2022-12-27T07:58:56.286Z,168.50
2022-12-27T08:00:59.728Z,188.18
2022-12-27T08:03:03.667Z,168.10
2022-12-27T08:05:07.475Z,182.80
2022-12-27T08:07:19.411Z,168.10
2022-12-27T08:09:29.117Z,167.00
2022-12-27T08:11:33.898Z,178.73
2022-12-27T08:13:37.603Z,183.88
2022-12-27T08:15:43.611Z,170.55
2022-12-27T08:17:47.038Z,180.60
2022-12-27T08:19:52.412Z,169.00
2022-12-27T08:21:55.801Z,169.43
2022-12-27T08:23:59.201Z,174.10
2022-12-27T08:26:02.540Z,168.50
2022-12-27T08:28:09.220Z,188.38
2022-12-27T08:30:13.369Z,179.40
2022-12-27T08:32:17.543Z,172.32
2022-12-27T08:34:21.115Z,180.80
2022-12-27T08:38:47.667Z,158.20
2022-12-27T08:40:50.985Z,170.55
2022-12-27T08:42:54.337Z,183.35
2022-12-27T08:44:59.118Z,172.85
2022-12-27T08:47:03.856Z,177.90
2022-12-27T08:49:07.464Z,171.43
2022-12-27T08:51:13.827Z,180.95
2022-12-27T08:53:19.175Z,191.88
2022-12-27T08:55:22.798Z,193.13
2022-12-27T08:57:26.216Z,178.90
2022-12-27T08:59:29.601Z,189.13
2022-12-27T09:01:35.801Z,177.40
2022-12-27T09:03:39.231Z,182.07
2022-12-27T09:05:42.692Z,181.05
2022-12-27T09:07:46.091Z,179.60
2022-12-27T09:09:50.209Z,182.98
2022-12-27T09:11:53.576Z,181.07
2022-12-27T09:13:59.261Z,170.75
2022-12-27T09:16:06.743Z,172.73
2022-12-27T09:18:12.043Z,177.43
2022-12-27T09:20:15.417Z,173.57
2022-12-27T09:22:18.791Z,170.07
2022-12-27T09:24:22.301Z,166.85
2022-12-27T09:26:28.229Z,170.60
2022-12-27T09:28:31.594Z,169.80
2022-12-27T09:30:34.931Z,161.75
2022-12-27T09:32:38.351Z,178.50
2022-12-27T09:34:43.097Z,175.52
2022-12-27T09:36:46.387Z,178.25
2022-12-27T09:38:52.635Z,182.95
2022-12-27T09:40:57.664Z,190.05
2022-12-27T09:43:20.673Z,189.30
2022-12-27T09:45:34.925Z,184.68
2022-12-27T09:47:49.835Z,178.05
2022-12-27T09:49:57.892Z,184.60
2022-12-27T09:52:04.555Z,178.20
2022-12-27T09:54:14.632Z,178.05
2022-12-27T09:56:24.252Z,180.93
2022-12-27T09:58:41.980Z,186.38
2022-12-27T10:00:46.503Z,173.88
2022-12-27T10:02:52.982Z,181.05
2022-12-27T10:07:32.158Z,200.13
2022-12-27T10:09:48.711Z,183.20
2022-12-27T10:12:01.696Z,190.00
2022-12-27T10:14:22.524Z,185.85
2022-12-27T10:16:33.827Z,180.73
2022-12-27T10:18:46.810Z,188.57
2022-12-27T10:21:01.524Z,189.60
2022-12-27T10:23:10.092Z,186.50
2022-12-27T10:25:15.544Z,194.82
2022-12-27T10:27:24.089Z,197.25
2022-12-27T10:29:28.073Z,199.50
2022-12-27T10:31:32.911Z,186.90
2022-12-27T10:33:36.745Z,193.95
2022-12-27T10:35:40.101Z,186.95
2022-12-27T10:37:46.543Z,188.63
2022-12-27T10:39:50.000Z,207.20
2022-12-27T10:42:01.115Z,193.35
2022-12-27T10:44:11.561Z,197.18
2022-12-27T10:46:19.222Z,214.07
2022-12-27T10:48:28.897Z,205.98
2022-12-27T10:50:35.640Z,192.63
2022-12-27T10:52:39.191Z,192.25
2022-12-27T10:54:53.253Z,189.05
2022-12-27T10:56:57.640Z,214.80
2022-12-27T10:59:12.114Z,196.27
2022-12-27T11:01:24.191Z,200.35
2022-12-27T11:03:28.423Z,201.05
2022-12-27T11:05:34.922Z,196.38
2022-12-27T11:07:38.329Z,204.13
2022-12-27T11:09:50.265Z,197.27
2022-12-27T11:12:12.885Z,202.02
2022-12-27T11:14:19.603Z,191.85
2022-12-27T11:16:30.245Z,195.60
2022-12-27T11:18:36.894Z,203.35
2022-12-27T11:20:45.705Z,196.63
2022-12-27T11:22:53.932Z,184.70
2022-12-27T11:25:00.355Z,190.38
2022-12-27T11:27:05.586Z,204.93
2022-12-27T11:29:17.745Z,203.65
2022-12-27T11:31:30.087Z,207.10
2022-12-27T11:33:37.601Z,197.20
2022-12-27T11:35:49.047Z,191.48
2022-12-27T11:37:52.896Z,208.32
2022-12-27T11:40:11.532Z,214.57
2022-12-27T11:42:28.049Z,203.93
2022-12-27T11:44:37.590Z,189.52
2022-12-27T11:46:45.109Z,195.77
2022-12-27T11:48:54.358Z,194.55
2022-12-27T11:51:14.524Z,202.82
2022-12-27T11:53:39.439Z,194.80
2022-12-27T11:56:00.575Z,200.40
2022-12-27T11:58:18.984Z,199.30
2022-12-27T12:00:24.035Z,195.60
2022-12-27T12:02:31.857Z,196.70
2022-12-27T12:05:15.464Z,189.65
2022-12-27T12:07:36.501Z,205.93
2022-12-27T12:09:55.359Z,199.45
2022-12-27T12:12:23.186Z,217.10
2022-12-27T12:14:47.659Z,210.70
2022-12-27T12:17:06.276Z,207.13
2022-12-27T12:19:23.120Z,209.13
2022-12-27T12:21:30.191Z,209.68
2022-12-27T12:23:54.905Z,211.15
2022-12-27T12:26:14.484Z,209.05
2022-12-27T12:29:01.041Z,197.00
2022-12-27T12:31:20.155Z,206.75
2022-12-27T12:33:41.506Z,202.77
2022-12-27T12:35:57.985Z,199.70
2022-12-27T12:38:05.662Z,211.50
2022-12-27T12:40:28.994Z,183.85
2022-12-27T12:42:38.383Z,207.60
2022-12-27T12:45:09.820Z,197.88
2022-12-27T12:47:33.752Z,204.27
2022-12-27T12:49:57.322Z,201.02
2022-12-27T12:52:43.740Z,203.20
2022-12-27T12:55:05.837Z,212.23
2022-12-27T12:57:24.680Z,198.80
2022-12-27T12:59:42.898Z,203.18
2022-12-27T13:02:01.157Z,207.13
2022-12-27T13:04:30.427Z,202.02
2022-12-27T13:07:07.832Z,192.48
2022-12-27T13:09:18.722Z,200.45
2022-12-27T13:11:41.421Z,196.45
2022-12-27T13:14:05.711Z,180.50
2022-12-27T13:16:21.530Z,212.07
2022-12-27T13:18:32.250Z,198.25
2022-12-27T13:21:01.301Z,188.55
2022-12-27T13:23:18.064Z,201.95
2022-12-27T13:25:32.597Z,199.40
2022-12-27T13:27:41.800Z,204.73
2022-12-27T13:30:01.661Z,189.60
2022-12-27T13:32:16.805Z,184.75
2022-12-27T13:34:30.338Z,194.77
2022-12-27T13:36:46.140Z,200.95
2022-12-27T13:39:09.560Z,197.02
2022-12-27T13:41:30.121Z,205.13
2022-12-27T13:44:07.088Z,195.02
2022-12-27T13:46:26.776Z,189.25
2022-12-27T13:48:45.208Z,220.25
2022-12-27T13:51:25.618Z,195.80
2022-12-27T13:53:51.635Z,201.63
2022-12-27T13:56:20.290Z,201.73
2022-12-27T13:58:54.833Z,196.82
2022-12-27T14:01:15.785Z,206.13
2022-12-27T14:03:45.157Z,199.35
2022-12-27T14:06:14.988Z,202.55
2022-12-27T14:08:26.983Z,207.13
2022-12-27T14:10:37.536Z,202.63
2022-12-27T14:12:57.431Z,193.75
2022-12-27T14:15:05.016Z,205.00
2022-12-27T14:17:28.211Z,210.75
2022-12-27T14:19:50.622Z,205.55
2022-12-27T14:22:18.333Z,204.27
2022-12-27T14:24:40.466Z,203.80
2022-12-27T14:27:26.310Z,224.05
2022-12-27T14:30:04.323Z,230.68
2022-12-27T14:32:28.746Z,221.85
2022-12-27T14:35:11.730Z,206.13
2022-12-27T14:37:54.216Z,209.48
2022-12-27T14:40:34.834Z,207.75
2022-12-27T14:43:17.056Z,196.68
2022-12-27T14:45:57.664Z,195.38
2022-12-27T14:48:26.940Z,209.70
2022-12-27T14:51:14.883Z,208.73
2022-12-27T14:54:04.086Z,206.77
2022-12-27T14:56:22.293Z,198.68
2022-12-27T14:58:38.929Z,205.15
2022-12-27T15:01:06.153Z,204.77
2022-12-27T15:03:24.375Z,195.40
2022-12-27T15:05:45.687Z,202.48
2022-12-27T15:08:25.243Z,212.30
2022-12-27T15:10:48.738Z,198.75
2022-12-27T15:13:00.670Z,212.90
2022-12-27T15:15:25.444Z,202.63
2022-12-27T15:17:44.299Z,210.77
2022-12-27T15:20:18.765Z,207.60
2022-12-27T15:22:30.119Z,213.68
2022-12-27T15:24:47.298Z,212.48
2022-12-27T15:26:55.529Z,212.07
2022-12-27T15:29:09.087Z,213.35
2022-12-27T15:31:25.636Z,204.63
2022-12-27T15:33:39.720Z,201.73
2022-12-27T15:35:53.832Z,210.77
2022-12-27T15:38:07.416Z,200.27
2022-12-27T15:40:25.049Z,208.25
2022-12-27T15:42:48.816Z,208.82
2022-12-27T15:45:02.827Z,205.57
2022-12-27T15:47:27.777Z,196.00
2022-12-27T15:49:57.865Z,215.13
2022-12-27T15:52:08.778Z,222.10
2022-12-27T15:54:36.498Z,202.80
2022-12-27T15:57:06.701Z,201.95
2022-12-27T15:59:46.616Z,189.07
2022-12-27T16:02:10.307Z,214.68
2022-12-27T16:04:40.992Z,210.75
2022-12-27T16:06:52.631Z,197.20
2022-12-27T16:09:28.607Z,208.25
2022-12-27T16:11:59.564Z,210.20
2022-12-27T16:14:24.190Z,203.75
2022-12-27T16:16:55.489Z,198.50
2022-12-27T16:19:19.980Z,205.77
2022-12-27T16:21:27.545Z,205.65
2022-12-27T16:23:34.183Z,193.13
2022-12-27T16:25:39.557Z,195.02
2022-12-27T16:27:44.386Z,206.90
2022-12-27T16:29:47.772Z,188.07
2022-12-27T16:31:52.549Z,190.50
2022-12-27T16:33:57.339Z,190.07
2022-12-27T16:36:17.136Z,203.63
2022-12-27T16:38:23.361Z,182.25
2022-12-27T16:40:43.888Z,176.85
2022-12-27T16:43:38.242Z,194.25
2022-12-27T16:45:51.669Z,184.23
2022-12-27T16:48:17.507Z,213.40
2022-12-27T16:50:55.582Z,179.95
2022-12-27T16:53:13.796Z,187.32
2022-12-27T16:55:40.623Z,191.23
2022-12-27T16:57:46.330Z,209.52
2022-12-27T17:00:01.036Z,191.75
2022-12-27T17:02:04.538Z,196.95
2022-12-27T17:04:08.108Z,186.10
2022-12-27T17:06:49.056Z,185.13
2022-12-27T17:09:28.696Z,182.10
2022-12-27T17:11:42.205Z,191.80
2022-12-27T17:13:50.628Z,173.40
2022-12-27T17:15:59.603Z,178.02
2022-12-27T17:18:10.187Z,196.27
2022-12-27T17:20:18.880Z,198.80
2022-12-27T17:22:26.140Z,194.40
2022-12-27T17:24:32.318Z,204.27
2022-12-27T17:27:06.174Z,181.77
2022-12-27T17:29:33.911Z,178.32
2022-12-27T17:31:46.562Z,180.73
2022-12-27T17:34:06.807Z,185.93
2022-12-27T17:36:24.024Z,184.50
2022-12-27T17:38:39.605Z,190.25
2022-12-27T17:40:52.096Z,187.85
2022-12-27T17:43:24.312Z,184.32
2022-12-27T17:45:38.597Z,187.10
2022-12-27T17:48:07.012Z,177.25
2022-12-27T17:50:15.914Z,174.27
2022-12-27T17:52:42.614Z,166.40
2022-12-27T17:55:03.597Z,179.75
2022-12-27T17:57:29.674Z,186.00
2022-12-27T17:59:35.836Z,180.10
2022-12-27T18:01:46.744Z,185.02
2022-12-27T18:03:51.332Z,174.10
2022-12-27T18:05:54.821Z,186.45
2022-12-27T18:08:04.188Z,196.20
2022-12-27T18:10:19.602Z,186.13
2022-12-27T18:12:26.734Z,189.85
2022-12-27T18:14:32.407Z,178.75
2022-12-27T18:16:40.961Z,184.63
2022-12-27T18:18:48.694Z,185.32
2022-12-27T18:20:56.737Z,177.98
2022-12-27T18:23:16.867Z,171.63
2022-12-27T18:25:25.148Z,171.18
2022-12-27T18:27:28.797Z,183.77
2022-12-27T18:29:32.864Z,174.50
2022-12-27T18:31:42.235Z,173.27
2022-12-27T18:33:49.849Z,160.73
2022-12-27T18:35:53.753Z,172.88
2022-12-27T18:37:57.703Z,194.25
2022-12-27T18:40:05.181Z,175.82
2022-12-27T18:42:17.884Z,195.80
2022-12-27T18:44:27.526Z,177.55
2022-12-27T18:46:33.483Z,187.32
2022-12-27T18:48:38.660Z,179.80
2022-12-27T18:50:51.616Z,189.80
2022-12-27T18:53:02.521Z,169.23
2022-12-27T18:55:17.732Z,185.73
2022-12-27T18:57:39.075Z,180.88
2022-12-27T18:59:42.681Z,188.30
2022-12-27T19:01:48.019Z,180.80
2022-12-27T19:04:19.398Z,177.25
2022-12-27T19:06:23.032Z,197.57
2022-12-27T19:08:31.105Z,174.40
2022-12-27T19:10:34.832Z,181.77
2022-12-27T19:12:40.600Z,178.02
2022-12-27T19:14:46.345Z,200.88
2022-12-27T19:16:53.954Z,166.88
2022-12-27T19:19:03.800Z,195.43
2022-12-27T19:21:08.337Z,177.90
2022-12-27T19:23:29.296Z,176.40
2022-12-27T19:25:34.862Z,176.93
2022-12-27T19:27:38.481Z,171.50
2022-12-27T19:29:49.306Z,186.10
2022-12-27T19:31:55.750Z,178.10
2022-12-27T19:34:03.548Z,184.13
2022-12-27T19:36:10.171Z,187.10
2022-12-27T19:38:21.726Z,197.20
2022-12-27T19:40:25.393Z,175.80
2022-12-27T19:42:31.755Z,190.32
2022-12-27T19:44:35.423Z,200.65
2022-12-27T19:46:39.033Z,185.07
2022-12-27T19:48:43.901Z,189.75
2022-12-27T19:50:51.593Z,186.30
2022-12-27T19:52:55.170Z,186.45
2022-12-27T19:55:03.666Z,187.60
2022-12-27T19:57:07.290Z,190.82
2022-12-27T19:59:16.766Z,186.77
2022-12-27T20:01:20.498Z,196.10
2022-12-27T20:03:24.963Z,194.60
2022-12-27T20:06:13.765Z,181.68
2022-12-27T20:07:53.887Z,181.85
2022-12-27T20:09:57.440Z,176.55
2022-12-27T20:12:00.840Z,177.32
2022-12-27T20:14:04.266Z,178.88
2022-12-27T20:16:08.580Z,171.32
2022-12-27T20:18:12.910Z,207.25
2022-12-27T20:20:16.228Z,213.82
2022-12-27T20:22:19.628Z,180.70
2022-12-27T20:24:24.362Z,184.02
2022-12-27T20:26:27.759Z,187.27
2022-12-27T20:28:31.208Z,174.57
2022-12-27T20:30:34.786Z,176.85
2022-12-27T20:32:38.414Z,182.07
2022-12-27T20:34:41.709Z,172.60
2022-12-27T20:36:45.627Z,174.55
2022-12-27T20:38:49.055Z,179.18
2022-12-27T20:40:53.805Z,173.60
2022-12-27T20:42:57.813Z,176.70
2022-12-27T20:45:01.168Z,174.38
2022-12-27T20:47:04.513Z,171.15
2022-12-27T20:49:08.224Z,184.63
2022-12-27T20:51:13.872Z,185.18
2022-12-27T20:53:17.239Z,187.73
2022-12-27T20:55:20.854Z,193.43
2022-12-27T20:57:25.594Z,182.18
2022-12-27T20:59:28.934Z,185.95
2022-12-27T21:01:32.443Z,180.55
2022-12-27T21:03:36.141Z,173.57
2022-12-27T21:05:39.545Z,188.18
2022-12-27T21:07:42.904Z,180.07
2022-12-27T21:09:46.232Z,177.85
2022-12-27T21:11:52.346Z,183.18
2022-12-27T21:13:57.102Z,178.32
2022-12-27T21:16:00.547Z,192.32
2022-12-27T21:18:03.973Z,187.45
2022-12-27T21:20:10.968Z,187.20
2022-12-27T21:22:14.285Z,174.23
2022-12-27T21:24:17.726Z,177.48
2022-12-27T21:26:23.162Z,193.52
2022-12-27T21:28:26.457Z,172.65
2022-12-27T21:30:31.197Z,177.25
2022-12-27T21:32:34.710Z,188.25
2022-12-27T21:34:39.155Z,178.52
2022-12-27T21:36:42.851Z,181.30
2022-12-27T21:38:46.565Z,195.88
2022-12-27T21:40:56.600Z,183.93
2022-12-27T21:42:59.924Z,177.85
2022-12-27T21:45:03.218Z,184.23
2022-12-27T21:47:08.004Z,179.48
2022-12-27T21:49:13.334Z,186.00
2022-12-27T21:51:18.831Z,189.35
2022-12-27T21:53:22.245Z,166.20
2022-12-27T21:55:25.633Z,177.23
2022-12-27T21:57:29.198Z,195.15
2022-12-27T21:59:32.606Z,200.48
2022-12-27T22:01:50.100Z,198.40
2022-12-27T22:03:58.047Z,180.88
2022-12-27T22:06:10.122Z,190.77
2022-12-27T22:08:13.402Z,180.88
2022-12-27T22:10:16.865Z,194.60
2022-12-27T22:12:20.257Z,192.85
2022-12-27T22:14:25.557Z,188.07
2022-12-27T22:16:32.026Z,178.80
2022-12-27T22:18:37.357Z,196.20
2022-12-27T22:20:46.859Z,188.65
2022-12-27T22:22:50.678Z,173.63
2022-12-27T22:24:53.955Z,186.27
2022-12-27T22:26:57.295Z,183.15
2022-12-27T22:29:01.921Z,178.77
2022-12-27T22:31:07.066Z,173.73
2022-12-27T22:33:10.415Z,173.45
2022-12-27T22:35:13.801Z,186.98
2022-12-27T22:37:18.435Z,181.35
2022-12-27T22:39:21.808Z,177.82
2022-12-27T22:41:27.264Z,189.18
2022-12-27T22:43:30.523Z,178.18
2022-12-27T22:45:33.826Z,167.23
2022-12-27T22:47:37.514Z,176.95
2022-12-27T22:49:40.839Z,179.00
2022-12-27T22:51:44.407Z,188.00
2022-12-27T22:53:49.086Z,176.38
2022-12-27T22:55:52.807Z,195.30
2022-12-27T22:57:56.301Z,188.30
2022-12-27T22:59:59.662Z,184.10
2022-12-27T23:02:03.075Z,184.50
2022-12-27T23:04:08.226Z,194.73
2022-12-27T23:06:12.397Z,189.52
2022-12-27T23:08:16.651Z,183.32
2022-12-27T23:10:21.389Z,188.75
2022-12-27T23:12:24.811Z,188.38
2022-12-27T23:14:28.216Z,178.75
2022-12-27T23:16:37.072Z,179.10
2022-12-27T23:18:40.628Z,194.98
2022-12-27T23:21:20.036Z,174.20
2022-12-27T23:23:08.842Z,187.65
2022-12-27T23:25:12.218Z,178.00
2022-12-27T23:27:16.882Z,188.32
2022-12-27T23:29:20.171Z,177.38
2022-12-27T23:31:25.151Z,187.10
2022-12-27T23:33:28.585Z,176.88
2022-12-27T23:35:31.894Z,173.45
2022-12-27T23:37:35.272Z,175.73
2022-12-27T23:39:38.543Z,184.70
2022-12-27T23:41:41.823Z,186.65
2022-12-27T23:43:55.473Z,185.48
2022-12-27T23:46:06.549Z,177.27
2022-12-27T23:48:09.980Z,176.30
2022-12-27T23:50:17.341Z,168.00
2022-12-27T23:52:24.043Z,174.80
2022-12-27T23:54:27.419Z,180.20
2022-12-27T23:56:33.806Z,174.98
2022-12-27T23:58:37.689Z,174.18
